Time;durP1;ratioP1;P1;durP2;ratioP2;P2;SDS_P1;SDS_P2;PMS_P1;PMS_P2;Temp;Humidity;BMP_temperature;BMP_pressure;BME280_temperature;BME280_humidity;BME280_pressure;Samples;Min_cycle;Max_cycle;Signal;HPM_P1;HPM_P2
2021/05/28 07:08:32;;;;;;;4.40;2.78;;;;;;;17.13;64.19;93685.34;5102179;28;20039;-84
2021/05/28 07:10:58;;;;;;;6.65;3.13;;;;;;;17.18;62.75;93678.91;5102249;28;20023;-74
2021/05/28 07:13:23;;;;;;;6.03;2.92;;;;;;;17.29;63.73;93696.03;5109900;28;20476;-75
2021/05/28 07:15:48;;;;;;;7.35;2.88;;;;;;;17.25;62.09;93684.41;5109924;28;20035;-75
2021/05/28 07:18:14;;;;;;;6.72;3.30;;;;;;;17.35;61.82;93688.44;5089697;28;20032;-75
2021/05/28 07:20:39;;;;;;;4.25;2.85;;;;;;;17.38;61.23;93691.19;5096457;28;20046;-75
2021/05/28 07:23:04;;;;;;;6.93;2.50;;;;;;;17.37;60.08;93688.84;5106988;28;20024;-77
2021/05/28 07:25:30;;;;;;;3.88;2.75;;;;;;;17.40;57.66;93694.28;5103964;28;20280;-79
2021/05/28 07:27:56;;;;;;;4.10;2.40;;;;;;;17.31;57.09;93701.81;5092658;28;20042;-79
2021/05/28 07:30:22;;;;;;;4.30;2.95;;;;;;;17.21;57.67;93694.34;5102912;28;20118;-79
2021/05/28 07:32:47;;;;;;;9.52;3.42;;;;;;;17.14;56.36;93691.53;5099030;28;20099;-79
2021/05/28 07:35:13;;;;;;;3.83;2.55;;;;;;;17.19;58.14;93689.31;5102009;28;20027;-75
2021/05/28 07:37:40;;;;;;;5.35;2.92;;;;;;;17.27;58.26;93694.81;5103812;28;20023;-76
2021/05/28 07:40:07;;;;;;;5.05;3.45;;;;;;;17.23;59.28;93697.47;5095319;28;20027;-75
2021/05/28 07:42:33;;;;;;;9.38;4.80;;;;;;;17.07;58.49;93707.56;5093869;28;20024;-75
2021/05/28 07:44:58;;;;;;;10.65;4.72;;;;;;;16.88;59.61;93700.28;5098742;28;20460;-77
2021/05/28 07:47:24;;;;;;;6.95;4.82;;;;;;;16.73;61.19;93704.59;5101474;28;20059;-75
2021/05/28 07:49:49;;;;;;;17.27;5.50;;;;;;;16.51;60.71;93704.19;5099867;28;20084;-76
2021/05/28 07:52:15;;;;;;;13.75;4.78;;;;;;;16.55;61.49;93718.47;5102578;28;20020;-76
2021/05/28 07:54:42;;;;;;;10.27;5.00;;;;;;;16.40;61.65;93712.00;5095839;28;20039;-77
2021/05/28 07:57:08;;;;;;;8.02;4.75;;;;;;;16.36;61.55;93713.06;5097633;28;20036;-79
2021/05/28 07:59:33;;;;;;;12.48;5.03;;;;;;;16.33;62.16;93716.50;5096644;28;20082;-79
2021/05/28 08:01:59;;;;;;;11.50;4.60;;;;;;;16.15;62.80;93714.19;5107244;28;20031;-76
2021/05/28 08:04:24;;;;;;;8.10;4.30;;;;;;;16.15;63.06;93718.78;5099029;28;20039;-76
2021/05/28 08:06:50;;;;;;;9.38;5.32;;;;;;;15.97;63.90;93727.22;5087614;28;20027;-75
2021/05/28 08:09:15;;;;;;;9.13;4.80;;;;;;;15.95;64.48;93731.41;5103045;28;20027;-75
2021/05/28 08:11:42;;;;;;;6.22;4.70;;;;;;;15.91;64.87;93725.94;5102832;28;20070;-77
2021/05/28 08:14:07;;;;;;;6.60;5.07;;;;;;;15.90;65.86;93729.78;5091838;28;20028;-76
2021/05/28 08:16:33;;;;;;;6.68;4.80;;;;;;;15.91;65.09;93736.69;5100994;28;20493;-77
2021/05/28 08:18:59;;;;;;;6.03;4.55;;;;;;;15.95;65.45;93732.19;5098721;28;20031;-77
2021/05/28 08:21:25;;;;;;;7.38;4.78;;;;;;;15.91;66.33;93735.91;5102414;28;20027;-77
2021/05/28 08:23:50;;;;;;;11.27;5.30;;;;;;;15.66;66.08;93736.09;5096174;28;20468;-76
2021/05/28 08:26:15;;;;;;;18.42;6.75;;;;;;;15.37;68.50;93756.88;5102241;28;20097;-75
2021/05/28 08:28:41;;;;;;;11.80;7.10;;;;;;;15.25;70.66;93775.75;5106193;28;20119;-76
2021/05/28 08:31:08;;;;;;;15.35;8.32;;;;;;;14.57;72.42;93790.00;5110940;28;20023;-74
2021/05/28 08:33:33;;;;;;;21.52;11.23;;;;;;;13.68;76.19;93804.09;5092392;28;20028;-74
2021/05/28 08:35:59;;;;;;;17.35;11.93;;;;;;;12.95;77.79;93779.50;5092558;28;20093;-73
2021/05/28 08:38:25;;;;;;;21.25;13.73;;;;;;;12.60;78.82;93811.91;5103741;28;20028;-76
2021/05/28 08:40:51;;;;;;;20.10;14.30;;;;;;;12.26;77.20;93812.91;5109329;28;20037;-78
2021/05/28 08:43:16;;;;;;;20.80;14.77;;;;;;;12.08;79.05;93806.88;5107076;28;20471;-80
2021/05/28 08:45:45;;;;;;;23.85;17.13;;;;;;;11.85;77.50;93817.81;5099946;28;20032;-79
2021/05/28 08:48:12;;;;;;;25.42;19.17;;;;;;;11.74;77.96;93818.50;5100383;28;20051;-78
2021/05/28 08:50:38;;;;;;;26.92;20.95;;;;;;;11.68;79.77;93820.56;5110430;28;20032;-80
2021/05/28 08:53:07;;;;;;;24.88;18.30;;;;;;;11.58;79.06;93824.38;5110210;28;20450;-79
2021/05/28 08:55:34;;;;;;;21.83;17.88;;;;;;;11.48;79.50;93838.06;5106179;28;20135;-79
2021/05/28 08:58:04;;;;;;;25.65;17.85;;;;;;;11.50;80.63;93829.72;5103515;28;20487;-80
2021/05/28 09:00:30;;;;;;;23.08;17.92;;;;;;;11.47;80.98;93862.41;5100249;28;20027;-78
2021/05/28 09:02:55;;;;;;;18.27;14.13;;;;;;;11.51;81.03;93850.00;5093434;28;20020;-81
2021/05/28 09:05:24;;;;;;;21.17;17.45;;;;;;;11.53;82.01;93861.91;5095515;28;20108;-80
2021/05/28 09:08:00;;;;;;;23.20;16.15;;;;;;;11.60;82.04;93856.06;5100857;28;20529;-80
2021/05/28 09:10:27;;;;;;;19.58;14.68;;;;;;;11.66;81.36;93860.13;5098166;28;20031;-81
2021/05/28 09:12:54;;;;;;;17.48;14.20;;;;;;;11.69;80.27;93862.19;5098593;28;20056;-82
2021/05/28 09:15:21;;;;;;;18.60;13.50;;;;;;;11.77;80.09;93858.69;5097273;28;20159;-82
2021/05/28 09:17:49;;;;;;;21.63;13.23;;;;;;;11.77;78.72;93856.03;5100727;28;20102;-82
2021/05/28 09:20:15;;;;;;;15.77;13.60;;;;;;;11.86;78.85;93869.34;5104027;28;20027;-82
2021/05/28 09:22:40;;;;;;;22.42;12.95;;;;;;;11.85;78.67;93865.88;5092117;28;20510;-81
2021/05/28 09:25:06;;;;;;;17.50;12.43;;;;;;;11.94;78.26;93878.44;5098546;28;20134;-82
2021/05/28 09:27:35;;;;;;;14.25;12.43;;;;;;;11.99;78.70;93880.97;5111834;28;20534;-82
2021/05/28 09:30:10;;;;;;;14.25;12.68;;;;;;;12.07;78.27;93882.00;5097264;28;20118;-81
2021/05/28 09:32:38;;;;;;;15.57;12.40;;;;;;;12.06;77.99;93889.25;5101456;28;20022;-81
2021/05/28 09:35:07;;;;;;;14.23;11.80;;;;;;;12.10;77.66;93876.81;5107094;28;20057;-81
2021/05/28 09:37:39;;;;;;;16.13;11.75;;;;;;;12.09;77.61;93883.28;5108334;28;20007;-82
2021/05/28 09:40:19;;;;;;;12.23;10.93;;;;;;;12.11;77.47;93881.06;5099523;28;20060;-82
2021/05/28 09:42:48;;;;;;;15.52;12.55;;;;;;;12.06;77.50;93873.22;5104253;28;20028;-80
2021/05/28 09:45:32;;;;;;;16.85;12.07;;;;;;;12.06;77.83;93880.44;5092276;28;20062;-80
2021/05/28 09:48:04;;;;;;;16.73;12.57;;;;;;;12.10;78.66;93873.38;5093477;28;20046;-79
2021/05/28 09:50:33;;;;;;;15.65;12.20;;;;;;;12.09;78.94;93877.94;5091103;28;20077;-80
2021/05/28 09:53:04;;;;;;;18.45;12.30;;;;;;;12.06;79.48;93875.88;5091193;28;20028;-80
2021/05/28 09:55:31;;;;;;;21.45;13.13;;;;;;;12.07;79.95;93866.78;5102712;28;20031;-80
2021/05/28 09:57:57;;;;;;;16.77;13.43;;;;;;;12.11;79.77;93867.69;5104510;28;20024;-80
2021/05/28 10:00:36;;;;;;;18.27;12.90;;;;;;;12.10;79.33;93868.78;5100103;28;20176;-80
2021/05/28 10:03:15;;;;;;;16.00;11.13;;;;;;;12.11;79.06;93865.03;5105340;28;20032;-82
2021/05/28 10:05:43;;;;;;;15.60;12.27;;;;;;;12.19;79.61;93871.41;5100936;28;20027;-83
2021/05/28 10:08:11;;;;;;;17.92;12.57;;;;;;;12.31;80.17;93874.19;5106128;28;20082;-82
2021/05/28 10:10:39;;;;;;;15.00;11.98;;;;;;;12.34;78.52;93867.44;5095039;28;20035;-80
2021/05/28 10:13:12;;;;;;;12.10;7.75;;;;;;;12.38;77.04;93866.44;5097782;28;20089;-83
2021/05/28 10:15:46;;;;;;;7.25;5.47;;;;;;;12.39;75.03;93859.19;5093053;28;20043;-83
2021/05/28 10:18:13;;;;;;;5.22;4.28;;;;;;;12.41;73.72;93865.00;5105563;28;20031;-82
2021/05/28 10:20:41;;;;;;;7.72;3.88;;;;;;;12.29;72.53;93859.59;5104701;28;20027;-82
2021/05/28 10:23:08;;;;;;;8.88;3.83;;;;;;;12.26;73.92;93850.31;5103872;28;20479;-83
2021/05/28 10:25:35;;;;;;;6.05;4.35;;;;;;;12.22;74.38;93852.84;5093573;28;20024;-81
2021/05/28 10:28:04;;;;;;;5.15;4.03;;;;;;;12.16;72.99;93862.16;5101232;28;20032;-80
2021/05/28 10:30:41;;;;;;;6.80;4.90;;;;;;;12.12;73.60;93863.91;5102512;28;20030;-80
2021/05/28 10:33:30;;;;;;;6.15;4.63;;;;;;;12.09;74.53;93871.78;5085257;28;20028;-80
2021/05/28 10:35:58;;;;;;;11.02;4.90;;;;;;;12.01;74.83;93862.72;5103789;28;20518;-79
2021/05/28 10:38:29;;;;;;;9.05;6.00;;;;;;;11.94;74.40;93867.78;5090576;28;20059;-80
2021/05/28 10:40:55;;;;;;;6.55;5.28;;;;;;;12.02;75.04;93880.31;5090573;28;20028;-77
2021/05/28 10:43:20;;;;;;;7.28;5.65;;;;;;;11.98;73.77;93877.47;5101839;28;20020;-76
2021/05/28 10:46:01;;;;;;;10.10;5.93;;;;;;;11.97;74.74;93875.94;5094903;28;20085;-76
2021/05/28 10:51:04;;;;;;;7.07;5.47;;;;;;;12.07;75.78;93872.13;5100357;28;20030;-75
2021/05/28 10:53:29;;;;;;;5.88;5.15;;;;;;;12.03;75.17;93874.66;5097705;28;20395;-76
2021/05/28 10:56:22;;;;;;;11.52;5.45;;;;;;;12.07;75.35;93882.81;5100573;28;20023;-76
2021/05/28 10:58:58;;;;;;;6.28;4.95;;;;;;;12.05;75.13;93874.34;5078841;28;20104;-76
2021/05/28 11:01:36;;;;;;;7.72;5.65;;;;;;;12.01;74.05;93882.19;5108973;28;20031;-77
2021/05/28 11:04:06;;;;;;;7.80;5.75;;;;;;;12.07;73.46;93882.00;5088591;28;20455;-77
2021/05/28 11:06:34;;;;;;;7.45;6.15;;;;;;;12.14;75.35;93879.63;5098706;28;20031;-76
2021/05/28 11:09:03;;;;;;;13.77;8.73;;;;;;;12.15;75.52;93871.28;5107486;28;20040;-76
2021/05/28 11:11:38;;;;;;;8.40;6.45;;;;;;;12.17;74.75;93871.75;5096908;28;20125;-74
2021/05/28 11:14:35;;;;;;;8.55;7.45;;;;;;;12.26;76.33;93865.59;5097797;28;21456;-75
2021/05/28 11:17:00;;;;;;;6.93;6.22;;;;;;;12.27;74.76;93861.78;5089558;28;20036;-74
2021/05/28 11:19:27;;;;;;;10.27;7.13;;;;;;;12.31;75.55;93876.06;5098915;28;20179;-73
2021/05/28 11:22:06;;;;;;;10.68;7.40;;;;;;;12.33;76.69;93868.50;5097796;28;20120;-75
2021/05/28 11:24:47;;;;;;;11.77;7.63;;;;;;;12.33;76.96;93877.31;5092383;28;20077;-75
2021/05/28 11:27:34;;;;;;;9.43;7.67;;;;;;;12.34;75.99;93872.78;5109739;28;20112;-75
2021/05/28 11:30:02;;;;;;;8.48;7.00;;;;;;;12.32;74.77;93883.00;5077381;28;20367;-74
2021/05/28 11:32:35;;;;;;;10.85;7.78;;;;;;;12.31;75.63;93884.09;5093617;28;20035;-73
2021/05/28 11:35:21;;;;;;;8.80;7.60;;;;;;;12.32;75.62;93880.31;5100384;28;20039;-73
2021/05/28 11:37:49;;;;;;;13.60;8.00;;;;;;;12.27;75.57;93883.16;5091900;28;20016;-76
2021/05/28 11:40:18;;;;;;;9.75;7.57;;;;;;;12.30;75.15;93891.34;5097684;28;20027;-76
2021/05/28 11:42:44;;;;;;;10.93;7.53;;;;;;;12.22;75.33;93892.94;5109530;28;20102;-75
2021/05/28 11:45:13;;;;;;;12.65;9.88;;;;;;;12.21;75.42;93890.59;5101677;28;20161;-75
2021/05/28 11:47:39;;;;;;;15.82;10.55;;;;;;;12.20;76.00;93895.16;5104479;28;20038;-75
2021/05/28 11:50:08;;;;;;;12.82;9.98;;;;;;;12.24;75.32;93896.06;5102894;28;20020;-76
2021/05/28 11:52:33;;;;;;;13.65;11.43;;;;;;;12.21;75.00;93891.38;5112007;28;20027;-81
2021/05/28 11:55:17;;;;;;;15.43;11.60;;;;;;;12.29;76.00;93899.66;5104600;28;20030;-79
2021/05/28 11:57:55;;;;;;;15.95;12.98;;;;;;;12.31;75.52;93894.78;5104868;28;20036;-80
2021/05/28 12:00:21;;;;;;;17.13;13.35;;;;;;;12.36;75.96;93899.97;5106695;28;20081;-81
2021/05/28 12:02:48;;;;;;;19.48;15.15;;;;;;;12.41;76.45;93899.75;5117354;28;20106;-83
2021/05/28 12:05:18;;;;;;;13.10;10.80;;;;;;;12.40;74.42;93909.66;5112208;28;20498;-78
2021/05/28 12:07:44;;;;;;;13.82;11.15;;;;;;;12.39;74.74;93901.97;5108182;28;20044;-82
2021/05/28 12:10:13;;;;;;;12.48;11.15;;;;;;;12.47;74.73;93901.13;5108178;28;20122;-81
2021/05/28 12:13:07;;;;;;;12.88;10.73;;;;;;;12.46;75.02;93907.59;5104839;28;20020;-79
2021/05/28 12:16:01;;;;;;;14.05;11.15;;;;;;;12.51;74.59;93894.03;5114325;27;20335;-79
2021/05/28 12:18:33;;;;;;;12.35;10.40;;;;;;;12.58;74.90;93915.72;5101798;28;20034;-79
2021/05/28 12:21:02;;;;;;;14.18;11.18;;;;;;;12.65;73.66;93920.53;5109481;28;20028;-80
2021/05/28 12:23:38;;;;;;;16.58;10.80;;;;;;;12.58;74.32;93910.38;5103095;28;20127;-78
2021/05/28 12:26:13;;;;;;;14.45;11.25;;;;;;;12.52;74.14;93913.56;5100567;28;20035;-80
2021/05/28 12:28:45;;;;;;;16.77;10.95;;;;;;;12.54;73.99;93903.31;5095158;28;20101;-80
2021/05/28 12:31:13;;;;;;;17.85;11.48;;;;;;;12.51;74.38;93914.66;5104006;28;20503;-79
2021/05/28 12:33:40;;;;;;;15.05;10.93;;;;;;;12.52;74.99;93908.97;5105678;28;20110;-79
2021/05/28 12:36:08;;;;;;;18.08;12.13;;;;;;;12.55;75.17;93912.91;5103238;28;20491;-80
2021/05/28 12:38:38;;;;;;;14.68;11.05;;;;;;;12.55;75.33;93921.69;5104050;28;20036;-77
2021/05/28 12:41:05;;;;;;;14.80;11.18;;;;;;;12.53;75.74;93907.09;5107973;28;20023;-80
2021/05/28 12:43:32;;;;;;;17.85;11.90;;;;;;;12.58;75.44;93907.69;5107613;28;20023;-82
2021/05/28 12:45:58;;;;;;;13.10;10.48;;;;;;;12.61;74.70;93909.69;5105670;28;20083;-80
2021/05/28 12:48:42;;;;;;;11.38;9.45;;;;;;;12.68;74.05;93911.06;5106797;28;20055;-78
2021/05/28 12:51:07;;;;;;;12.40;9.45;;;;;;;12.59;73.09;93900.44;5098256;28;20029;-79
2021/05/28 12:53:37;;;;;;;9.60;7.65;;;;;;;12.52;72.21;93905.53;5113017;28;20533;-78
2021/05/28 12:56:04;;;;;;;12.18;8.75;;;;;;;12.45;73.16;93900.69;5108879;28;20032;-80
2021/05/28 12:58:32;;;;;;;12.32;9.75;;;;;;;12.46;73.37;93896.91;5111807;28;20483;-79
2021/05/28 13:01:06;;;;;;;10.48;8.23;;;;;;;12.51;72.89;93898.59;5108745;28;20032;-81
2021/05/28 13:03:37;;;;;;;10.43;7.30;;;;;;;12.52;72.58;93890.28;5093188;28;20032;-76
2021/05/28 13:06:29;;;;;;;13.95;8.93;;;;;;;12.62;72.67;93894.47;5091903;28;20027;-76
2021/05/28 13:09:05;;;;;;;10.80;8.43;;;;;;;12.65;71.21;93905.28;5108099;28;20451;-76
2021/05/28 13:12:04;;;;;;;12.05;8.35;;;;;;;12.57;72.39;93900.00;5092908;28;20099;-76
2021/05/28 13:14:32;;;;;;;10.60;8.30;;;;;;;12.57;71.12;93908.78;5095744;28;20423;-76
2021/05/28 13:17:18;;;;;;;12.80;9.65;;;;;;;12.61;71.63;93899.00;5101947;28;20035;-75
2021/05/28 13:20:16;;;;;;;18.13;8.27;;;;;;;12.70;70.83;93909.66;5094609;28;20419;-77
2021/05/28 13:22:43;;;;;;;12.90;8.60;;;;;;;12.76;70.97;93912.91;5106457;28;20043;-76
2021/05/28 13:25:17;;;;;;;10.48;7.85;;;;;;;12.64;70.14;93914.41;5102672;28;20039;-74
2021/05/28 13:27:46;;;;;;;11.25;8.93;;;;;;;12.45;70.34;93917.50;5099353;28;20487;-76
2021/05/28 13:30:12;;;;;;;11.25;8.98;;;;;;;12.33;71.15;93904.03;5093796;28;20452;-75
2021/05/28 13:32:41;;;;;;;11.02;8.55;;;;;;;12.19;70.08;93896.28;5094141;28;20020;-75
2021/05/28 13:35:09;;;;;;;12.55;8.60;;;;;;;12.17;71.18;93895.81;5105591;28;20027;-75
2021/05/28 13:37:36;;;;;;;11.32;8.73;;;;;;;12.09;71.97;93893.97;5105664;28;20027;-75
2021/05/28 13:40:06;;;;;;;10.32;9.23;;;;;;;12.08;72.06;93892.38;5104499;28;20038;-75
2021/05/28 13:42:31;;;;;;;10.65;9.15;;;;;;;12.10;73.26;93876.81;5103061;28;20165;-75
2021/05/28 13:44:57;;;;;;;11.90;8.93;;;;;;;12.16;72.53;93878.19;5101485;28;20028;-75
2021/05/28 13:47:24;;;;;;;13.35;8.50;;;;;;;12.12;71.06;93887.97;5107244;28;20031;-75
2021/05/28 13:49:51;;;;;;;13.80;9.55;;;;;;;12.14;71.74;93875.06;5103247;28;20066;-75
2021/05/28 13:52:16;;;;;;;13.15;8.48;;;;;;;12.29;71.33;93871.03;5095242;28;20487;-75
2021/05/28 13:54:42;;;;;;;10.10;8.77;;;;;;;12.45;71.54;93879.28;5093227;28;20039;-75
2021/05/28 13:57:08;;;;;;;12.43;9.10;;;;;;;12.80;70.52;93873.72;5100334;28;20506;-74
2021/05/28 13:59:34;;;;;;;11.23;8.95;;;;;;;13.04;70.12;93881.84;5101910;28;20051;-74
2021/05/28 14:02:00;;;;;;;9.23;7.45;;;;;;;13.78;67.54;93881.34;5105239;28;20023;-75
2021/05/28 14:04:26;;;;;;;7.95;6.53;;;;;;;14.47;63.47;93882.41;5106882;28;20447;-74
2021/05/28 14:06:53;;;;;;;10.90;6.15;;;;;;;15.05;60.25;93880.31;5104682;28;20024;-75
2021/05/28 14:09:18;;;;;;;10.32;6.63;;;;;;;15.44;59.46;93888.66;5116529;28;20085;-77
2021/05/28 14:11:45;;;;;;;9.50;6.18;;;;;;;15.69;59.89;93847.47;5099252;28;20442;-76
2021/05/28 14:14:11;;;;;;;7.32;5.93;;;;;;;16.00;56.89;93884.38;5096339;28;20028;-77
2021/05/28 14:16:36;;;;;;;9.80;5.60;;;;;;;16.65;56.39;93882.06;5092364;28;20024;-76
2021/05/28 14:19:02;;;;;;;7.38;5.00;;;;;;;17.42;53.80;93864.44;5092417;28;20024;-77
2021/05/28 14:21:27;;;;;;;8.57;5.07;;;;;;;18.08;51.95;93867.16;5105808;28;20440;-75
2021/05/28 14:23:52;;;;;;;7.30;5.10;;;;;;;18.64;50.36;93868.41;5116959;28;20414;-76
2021/05/28 14:26:18;;;;;;;6.95;5.07;;;;;;;19.36;47.85;93874.81;5113496;28;20495;-75
2021/05/28 14:28:43;;;;;;;6.65;4.45;;;;;;;19.96;45.73;93868.50;5112612;28;20064;-76
2021/05/28 14:31:09;;;;;;;5.28;4.20;;;;;;;20.28;44.23;93871.50;5113608;28;20515;-76
2021/05/28 14:36:23;;;;;;;6.15;4.70;;;;;;;19.19;47.29;93873.41;5115155;28;20172;-76
2021/05/28 14:38:52;;;;;;;9.15;5.03;;;;;;;18.71;48.79;93871.22;5117659;28;20053;-75
2021/05/28 14:41:18;;;;;;;16.38;5.03;;;;;;;19.19;49.23;93859.91;5113285;28;20024;-76
2021/05/28 14:43:45;;;;;;;7.65;4.68;;;;;;;19.71;46.32;93868.25;5112110;28;20011;-75
2021/05/28 14:46:14;;;;;;;5.30;4.32;;;;;;;20.25;44.94;93866.81;5100585;28;20482;-73
2021/05/28 14:48:40;;;;;;;6.57;4.22;;;;;;;20.45;44.81;93875.50;5097126;28;20036;-73
2021/05/28 14:51:06;;;;;;;7.72;4.20;;;;;;;20.75;43.88;93888.13;5095754;28;20056;-77
2021/05/28 14:53:31;;;;;;;6.38;4.65;;;;;;;20.62;43.65;93885.72;5109047;28;20023;-75
2021/05/28 14:55:56;;;;;;;6.65;5.05;;;;;;;19.86;45.95;93877.28;5101952;28;20024;-73
2021/05/28 14:58:22;;;;;;;8.00;5.25;;;;;;;19.20;48.12;93885.78;5088901;28;20107;-74
2021/05/28 15:00:48;;;;;;;7.15;5.32;;;;;;;18.14;50.03;93887.31;5099701;28;20027;-74
2021/05/28 15:03:13;;;;;;;7.03;5.03;;;;;;;17.81;51.65;93874.41;5109411;28;20054;-75
2021/05/28 15:05:41;;;;;;;8.25;5.45;;;;;;;17.42;53.17;93885.19;5110497;28;20019;-74
2021/05/28 15:08:07;;;;;;;13.55;6.35;;;;;;;16.93;53.45;93880.34;5095303;28;20123;-75
2021/05/28 15:10:33;;;;;;;12.55;6.55;;;;;;;16.31;54.45;93882.81;5105470;28;20028;-74
2021/05/28 15:12:58;;;;;;;9.45;5.90;;;;;;;16.10;56.49;93893.81;5088242;28;20023;-75
2021/05/28 15:15:24;;;;;;;11.00;6.30;;;;;;;15.61;57.07;93895.66;5088661;28;20052;-75
2021/05/28 15:17:50;;;;;;;7.90;6.07;;;;;;;15.34;58.33;93886.47;5089594;28;20028;-75
2021/05/28 15:20:16;;;;;;;9.65;6.75;;;;;;;14.99;59.09;93900.44;5075438;28;20039;-75
2021/05/28 15:22:42;;;;;;;13.07;6.78;;;;;;;14.71;60.38;93883.50;5102998;28;20102;-75
2021/05/28 15:25:09;;;;;;;9.60;6.55;;;;;;;14.60;61.08;93892.03;5100165;28;20019;-76
2021/05/28 15:27:35;;;;;;;9.32;6.55;;;;;;;14.54;62.30;93892.56;5108888;28;20045;-75
2021/05/28 15:30:00;;;;;;;7.63;6.00;;;;;;;14.52;61.56;93895.59;5102192;28;20419;-76
2021/05/28 15:32:26;;;;;;;9.18;6.03;;;;;;;14.36;62.22;93894.69;5096762;28;20328;-76
2021/05/28 15:34:51;;;;;;;10.38;6.65;;;;;;;14.20;62.67;93898.03;5103287;28;20103;-76
2021/05/28 15:37:17;;;;;;;10.40;7.10;;;;;;;14.14;63.14;93914.69;5102015;28;20067;-77
2021/05/28 15:39:42;;;;;;;8.90;6.72;;;;;;;14.08;63.42;93914.09;5102642;28;20032;-77
2021/05/28 15:42:08;;;;;;;10.20;7.05;;;;;;;14.04;63.62;93903.28;5113878;28;20031;-75
2021/05/28 15:44:34;;;;;;;14.27;7.70;;;;;;;13.96;64.11;93908.72;5113842;28;20111;-75
2021/05/28 15:47:00;;;;;;;10.68;7.43;;;;;;;13.90;64.22;93912.72;5105922;28;20052;-75
2021/05/28 15:49:26;;;;;;;13.23;7.70;;;;;;;13.85;64.39;93914.50;5093237;28;20115;-75
2021/05/28 15:51:52;;;;;;;13.35;7.38;;;;;;;13.83;64.59;93924.78;5098895;28;20057;-75
2021/05/28 15:54:18;;;;;;;9.70;7.55;;;;;;;13.81;65.68;93918.19;5103707;28;20040;-77
2021/05/28 15:56:43;;;;;;;9.65;7.32;;;;;;;13.84;65.04;93936.31;5095810;28;20052;-75
2021/05/28 15:59:08;;;;;;;9.05;7.25;;;;;;;13.79;64.85;93923.88;5097546;28;20024;-75
2021/05/28 16:01:35;;;;;;;13.15;6.75;;;;;;;13.73;64.70;93919.84;5095860;28;20474;-75
2021/05/28 16:04:02;;;;;;;9.10;6.70;;;;;;;13.73;64.99;93914.50;5096827;28;20073;-75
2021/05/28 16:06:28;;;;;;;10.00;6.75;;;;;;;13.73;65.13;93914.50;5102897;28;20031;-76
2021/05/28 16:08:53;;;;;;;8.25;7.35;;;;;;;13.74;65.08;93931.34;5097878;28;20044;-77
2021/05/28 16:11:19;;;;;;;8.35;7.22;;;;;;;13.72;64.75;93923.66;5111868;28;20034;-79
2021/05/28 16:13:44;;;;;;;11.98;7.38;;;;;;;13.73;64.19;93930.56;5099036;28;20019;-79
2021/05/28 16:16:09;;;;;;;16.95;8.82;;;;;;;13.77;64.40;93919.97;5102036;28;20459;-76
2021/05/28 16:18:35;;;;;;;10.82;8.25;;;;;;;13.76;63.13;93927.22;5105107;28;20027;-78
2021/05/28 16:21:00;;;;;;;9.07;7.80;;;;;;;13.65;63.38;93923.41;5109410;28;20027;-78
2021/05/28 16:23:26;;;;;;;13.05;7.60;;;;;;;13.68;63.65;93927.28;5112312;27;20036;-78
2021/05/28 16:25:51;;;;;;;14.07;9.25;;;;;;;13.70;63.87;93931.22;5113433;28;20035;-78
2021/05/28 16:28:17;;;;;;;9.88;8.57;;;;;;;13.64;63.84;93936.00;5104749;28;20499;-79
2021/05/28 16:30:44;;;;;;;17.30;8.82;;;;;;;13.60;63.68;93942.38;5101363;28;20023;-79
2021/05/28 16:33:14;;;;;;;10.27;8.55;;;;;;;13.56;64.24;93936.09;5106368;28;20028;-78
2021/05/28 16:35:40;;;;;;;10.10;8.68;;;;;;;13.59;64.26;93933.53;5110251;28;20462;-76
2021/05/28 16:38:06;;;;;;;11.57;9.27;;;;;;;13.58;64.27;93945.38;5092936;28;20035;-80
2021/05/28 16:40:32;;;;;;;13.75;9.77;;;;;;;13.52;63.23;93945.91;5104087;28;20028;-79
2021/05/28 16:42:58;;;;;;;12.10;8.50;;;;;;;13.45;63.41;93946.41;5096415;28;20375;-77
2021/05/28 16:45:24;;;;;;;10.70;8.50;;;;;;;13.36;63.57;93943.81;5097471;28;20043;-75
2021/05/28 16:47:49;;;;;;;15.68;8.82;;;;;;;13.24;63.77;93951.75;5099563;28;20485;-72
2021/05/28 16:50:15;;;;;;;10.07;8.23;;;;;;;13.29;64.07;93956.13;5113311;28;20394;-72
2021/05/28 16:52:40;;;;;;;9.93;8.38;;;;;;;13.29;64.36;93959.63;5102150;28;20024;-74
2021/05/28 16:55:07;;;;;;;13.65;8.77;;;;;;;13.30;64.86;93955.84;5095376;28;20032;-75
2021/05/28 16:57:33;;;;;;;13.07;8.43;;;;;;;13.25;64.29;93954.13;5100715;28;20019;-73
2021/05/28 16:59:58;;;;;;;11.35;8.95;;;;;;;13.30;64.76;93944.34;5093141;28;20031;-73
2021/05/28 17:02:24;;;;;;;11.23;8.52;;;;;;;13.38;64.50;93946.94;5099046;28;20024;-72
2021/05/28 17:04:52;;;;;;;9.95;8.45;;;;;;;13.41;64.21;93954.34;5111629;28;20110;-75
2021/05/28 17:07:18;;;;;;;11.80;8.40;;;;;;;13.34;64.05;93951.41;5089277;28;20036;-74
2021/05/28 17:09:44;;;;;;;14.93;9.13;;;;;;;13.30;63.49;93953.16;5109717;28;20376;-74
2021/05/28 17:12:10;;;;;;;12.55;9.23;;;;;;;13.31;64.28;93943.22;5112898;28;20016;-73
2021/05/28 17:14:35;;;;;;;11.88;8.73;;;;;;;13.20;64.42;93943.59;5110077;28;20026;-73
2021/05/28 17:17:01;;;;;;;14.98;9.35;;;;;;;13.23;66.30;93929.56;5103383;28;20099;-74
2021/05/28 17:19:28;;;;;;;12.13;8.27;;;;;;;13.22;65.12;93929.91;5101003;28;20111;-74
2021/05/28 17:21:55;;;;;;;12.75;8.30;;;;;;;13.13;64.70;93937.22;5097646;28;20041;-75
2021/05/28 17:24:21;;;;;;;11.50;8.70;;;;;;;13.03;64.48;93931.13;5105147;28;20490;-75
2021/05/28 17:26:47;;;;;;;10.38;8.50;;;;;;;13.01;64.90;93928.00;5106722;28;20027;-75
2021/05/28 17:29:12;;;;;;;12.38;9.95;;;;;;;13.02;64.65;93934.91;5100229;28;20038;-74
2021/05/28 17:31:38;;;;;;;15.57;9.52;;;;;;;12.99;65.04;93934.81;5093750;28;20027;-74
2021/05/28 17:34:03;;;;;;;20.77;10.35;;;;;;;12.83;64.77;93942.63;5100162;28;20027;-74
2021/05/28 17:36:28;;;;;;;14.43;10.10;;;;;;;12.83;65.18;93945.28;5097813;28;20510;-74
2021/05/28 17:38:54;;;;;;;13.50;10.27;;;;;;;12.66;65.85;93948.84;5101665;28;20106;-75
2021/05/28 17:41:19;;;;;;;12.98;9.88;;;;;;;12.70;65.95;93943.63;5117626;27;20024;-74
2021/05/28 17:43:45;;;;;;;12.75;9.57;;;;;;;12.63;65.37;93955.63;5093502;28;20024;-74
2021/05/28 17:46:11;;;;;;;11.98;9.77;;;;;;;12.58;64.82;93950.47;5101286;28;20088;-74
2021/05/28 17:48:37;;;;;;;12.13;9.68;;;;;;;12.53;65.16;93942.63;5105514;28;20527;-74
2021/05/28 17:51:03;;;;;;;17.48;11.45;;;;;;;12.51;65.06;93944.84;5096859;28;20118;-74
2021/05/28 17:53:28;;;;;;;15.80;10.68;;;;;;;12.42;65.31;93942.22;5102171;28;20399;-74
2021/05/28 17:55:54;;;;;;;12.50;9.60;;;;;;;12.31;65.19;93951.69;5098190;28;20031;-74
2021/05/28 17:58:19;;;;;;;15.73;9.90;;;;;;;12.31;65.68;93954.34;5095219;28;20106;-74
2021/05/28 18:00:46;;;;;;;13.07;10.25;;;;;;;12.28;66.01;93955.00;5101094;28;20028;-74
2021/05/28 18:03:14;;;;;;;14.45;11.15;;;;;;;12.19;66.21;93960.41;5093610;28;20024;-72
2021/05/28 18:05:39;;;;;;;14.80;10.80;;;;;;;12.15;67.53;93962.13;5107708;28;20028;-72
2021/05/28 18:08:06;;;;;;;15.52;9.88;;;;;;;12.13;65.97;93964.34;5098423;28;20418;-72
2021/05/28 18:10:31;;;;;;;16.02;11.00;;;;;;;12.14;66.44;93955.22;5102302;28;20407;-72
2021/05/28 18:12:57;;;;;;;12.60;9.73;;;;;;;12.10;66.23;93964.19;5099395;28;20032;-72
2021/05/28 18:15:24;;;;;;;15.95;10.05;;;;;;;11.99;66.71;93963.75;5100150;28;20042;-72
2021/05/28 18:17:49;;;;;;;12.43;10.30;;;;;;;11.99;66.70;93964.53;5095705;28;20025;-72
2021/05/28 18:20:17;;;;;;;14.88;11.05;;;;;;;11.94;67.05;93962.03;5096273;28;20465;-72
2021/05/28 18:22:43;;;;;;;14.10;10.20;;;;;;;11.93;67.17;93949.78;5102124;28;20027;-72
2021/05/28 18:25:12;;;;;;;14.25;11.75;;;;;;;11.81;67.75;93961.09;5101783;28;20030;-72
2021/05/28 18:27:38;;;;;;;12.07;10.57;;;;;;;11.80;67.56;93961.41;5100387;28;20111;-71
2021/05/28 18:30:05;;;;;;;15.20;11.15;;;;;;;11.77;67.87;93962.06;5098892;28;20102;-72
2021/05/28 18:32:31;;;;;;;14.15;9.30;;;;;;;11.78;67.91;93967.06;5104765;28;20036;-72
2021/05/28 18:34:56;;;;;;;13.25;9.43;;;;;;;11.79;68.02;93971.31;5106783;28;20543;-72
2021/05/28 18:37:22;;;;;;;17.33;10.55;;;;;;;11.87;67.68;93971.63;5093428;28;20550;-72
2021/05/28 18:39:47;;;;;;;12.07;8.88;;;;;;;11.84;67.47;93962.34;5109773;28;20051;-72
2021/05/28 18:42:13;;;;;;;11.10;8.73;;;;;;;11.84;67.74;93973.81;5098312;28;20048;-72
2021/05/28 18:44:38;;;;;;;12.55;9.02;;;;;;;11.81;67.29;93966.44;5109284;28;20062;-72